sensor_id;sensor_type;location;lat;lon;timestamp;P1;durP1;ratioP1;P2;durP2;ratioP2
23472;SDS011;11909;52.516;13.564;2022-12-08T00:01:21;11.82;;;6.75;;
23472;SDS011;11909;52.516;13.564;2022-12-08T00:03:49;14.85;;;7.07;;
23472;SDS011;11909;52.516;13.564;2022-12-08T00:06:27;15.40;;;7.80;;
23472;SDS011;11909;52.516;13.564;2022-12-08T00:09:15;14.60;;;7.22;;
23472;SDS011;11909;52.516;13.564;2022-12-08T00:11:51;13.02;;;6.97;;
23472;SDS011;11909;52.516;13.564;2022-12-08T00:16:57;19.42;;;7.60;;
23472;SDS011;11909;52.516;13.564;2022-12-08T00:19:25;13.63;;;7.63;;
23472;SDS011;11909;52.516;13.564;2022-12-08T00:21:54;13.77;;;7.22;;
23472;SDS011;11909;52.516;13.564;2022-12-08T00:24:23;13.45;;;7.20;;
23472;SDS011;11909;52.516;13.564;2022-12-08T00:26:51;12.55;;;7.32;;
23472;SDS011;11909;52.516;13.564;2022-12-08T00:29:19;13.60;;;6.70;;
23472;SDS011;11909;52.516;13.564;2022-12-08T00:31:48;10.60;;;6.95;;
23472;SDS011;11909;52.516;13.564;2022-12-08T00:34:16;11.50;;;6.68;;
23472;SDS011;11909;52.516;13.564;2022-12-08T00:36:44;13.05;;;6.07;;
23472;SDS011;11909;52.516;13.564;2022-12-08T00:39:12;12.10;;;6.60;;
23472;SDS011;11909;52.516;13.564;2022-12-08T00:41:41;14.40;;;7.18;;
23472;SDS011;11909;52.516;13.564;2022-12-08T00:44:26;11.05;;;6.80;;
23472;SDS011;11909;52.516;13.564;2022-12-08T00:46:55;12.88;;;6.90;;
23472;SDS011;11909;52.516;13.564;2022-12-08T00:49:23;13.07;;;7.18;;
23472;SDS011;11909;52.516;13.564;2022-12-08T00:51:51;12.70;;;6.93;;
23472;SDS011;11909;52.516;13.564;2022-12-08T00:54:19;12.82;;;6.93;;
23472;SDS011;11909;52.516;13.564;2022-12-08T00:56:48;11.95;;;7.40;;
23472;SDS011;11909;52.516;13.564;2022-12-08T00:59:16;11.88;;;7.13;;
23472;SDS011;11909;52.516;13.564;2022-12-08T01:01:44;13.07;;;7.60;;
23472;SDS011;11909;52.516;13.564;2022-12-08T01:04:15;12.98;;;6.78;;
23472;SDS011;11909;52.516;13.564;2022-12-08T01:06:44;14.88;;;8.25;;
23472;SDS011;11909;52.516;13.564;2022-12-08T01:09:13;20.17;;;8.52;;
23472;SDS011;11909;52.516;13.564;2022-12-08T01:11:41;13.60;;;8.77;;
23472;SDS011;11909;52.516;13.564;2022-12-08T01:14:10;19.27;;;7.97;;
23472;SDS011;11909;52.516;13.564;2022-12-08T01:16:38;14.93;;;8.00;;
23472;SDS011;11909;52.516;13.564;2022-12-08T01:19:08;14.93;;;8.50;;
23472;SDS011;11909;52.516;13.564;2022-12-08T01:21:38;15.30;;;8.05;;
23472;SDS011;11909;52.516;13.564;2022-12-08T01:24:08;11.93;;;7.85;;
23472;SDS011;11909;52.516;13.564;2022-12-08T01:26:37;18.45;;;8.32;;
23472;SDS011;11909;52.516;13.564;2022-12-08T01:29:04;15.82;;;8.27;;
23472;SDS011;11909;52.516;13.564;2022-12-08T01:31:33;13.27;;;7.70;;
23472;SDS011;11909;52.516;13.564;2022-12-08T01:34:01;17.42;;;8.18;;
23472;SDS011;11909;52.516;13.564;2022-12-08T01:36:29;16.10;;;8.90;;
23472;SDS011;11909;52.516;13.564;2022-12-08T01:39:00;14.85;;;7.78;;
23472;SDS011;11909;52.516;13.564;2022-12-08T01:41:29;19.38;;;8.85;;
23472;SDS011;11909;52.516;13.564;2022-12-08T01:44:00;15.77;;;8.60;;
23472;SDS011;11909;52.516;13.564;2022-12-08T01:46:30;13.20;;;8.00;;
23472;SDS011;11909;52.516;13.564;2022-12-08T01:49:00;13.10;;;7.38;;
23472;SDS011;11909;52.516;13.564;2022-12-08T01:51:30;11.85;;;7.85;;
23472;SDS011;11909;52.516;13.564;2022-12-08T01:54:02;14.20;;;7.45;;
23472;SDS011;11909;52.516;13.564;2022-12-08T01:56:33;16.00;;;7.97;;
23472;SDS011;11909;52.516;13.564;2022-12-08T01:59:08;14.77;;;8.77;;
23472;SDS011;11909;52.516;13.564;2022-12-08T02:01:37;12.98;;;7.80;;
23472;SDS011;11909;52.516;13.564;2022-12-08T02:04:05;15.65;;;8.50;;
23472;SDS011;11909;52.516;13.564;2022-12-08T02:06:33;12.75;;;7.50;;
23472;SDS011;11909;52.516;13.564;2022-12-08T02:09:06;15.70;;;7.38;;
23472;SDS011;11909;52.516;13.564;2022-12-08T02:11:34;9.65;;;6.85;;
23472;SDS011;11909;52.516;13.564;2022-12-08T02:14:03;12.02;;;6.90;;
23472;SDS011;11909;52.516;13.564;2022-12-08T02:16:34;11.40;;;6.80;;
23472;SDS011;11909;52.516;13.564;2022-12-08T02:19:13;10.70;;;7.00;;
23472;SDS011;11909;52.516;13.564;2022-12-08T02:21:59;12.40;;;6.90;;
23472;SDS011;11909;52.516;13.564;2022-12-08T02:24:36;14.27;;;7.38;;
23472;SDS011;11909;52.516;13.564;2022-12-08T02:27:12;11.30;;;6.68;;
23472;SDS011;11909;52.516;13.564;2022-12-08T02:30:05;13.70;;;7.35;;
23472;SDS011;11909;52.516;13.564;2022-12-08T02:32:45;13.88;;;7.10;;
23472;SDS011;11909;52.516;13.564;2022-12-08T02:35:35;11.45;;;6.90;;
23472;SDS011;11909;52.516;13.564;2022-12-08T02:38:11;11.20;;;6.95;;
23472;SDS011;11909;52.516;13.564;2022-12-08T02:40:48;14.93;;;7.22;;
23472;SDS011;11909;52.516;13.564;2022-12-08T02:43:21;14.93;;;8.57;;
23472;SDS011;11909;52.516;13.564;2022-12-08T02:45:55;12.75;;;7.80;;
23472;SDS011;11909;52.516;13.564;2022-12-08T02:48:27;13.57;;;8.60;;
23472;SDS011;11909;52.516;13.564;2022-12-08T02:50:57;13.50;;;7.75;;
23472;SDS011;11909;52.516;13.564;2022-12-08T02:53:25;13.82;;;8.43;;
23472;SDS011;11909;52.516;13.564;2022-12-08T02:55:55;13.77;;;7.55;;
23472;SDS011;11909;52.516;13.564;2022-12-08T02:58:34;13.02;;;7.72;;
23472;SDS011;11909;52.516;13.564;2022-12-08T03:01:14;12.18;;;7.85;;
23472;SDS011;11909;52.516;13.564;2022-12-08T03:03:58;12.68;;;7.30;;
23472;SDS011;11909;52.516;13.564;2022-12-08T03:06:33;13.75;;;7.50;;
23472;SDS011;11909;52.516;13.564;2022-12-08T03:09:08;11.32;;;7.38;;
23472;SDS011;11909;52.516;13.564;2022-12-08T03:11:41;10.52;;;7.45;;
23472;SDS011;11909;52.516;13.564;2022-12-08T03:14:15;10.93;;;7.00;;
23472;SDS011;11909;52.516;13.564;2022-12-08T03:16:44;9.45;;;6.97;;
23472;SDS011;11909;52.516;13.564;2022-12-08T03:19:15;11.48;;;6.93;;
23472;SDS011;11909;52.516;13.564;2022-12-08T03:21:47;11.23;;;6.78;;
23472;SDS011;11909;52.516;13.564;2022-12-08T03:24:18;11.88;;;6.93;;
23472;SDS011;11909;52.516;13.564;2022-12-08T03:26:49;10.63;;;7.25;;
23472;SDS011;11909;52.516;13.564;2022-12-08T03:29:21;8.95;;;6.30;;
23472;SDS011;11909;52.516;13.564;2022-12-08T03:31:51;10.48;;;7.25;;
23472;SDS011;11909;52.516;13.564;2022-12-08T03:34:21;10.77;;;7.15;;
23472;SDS011;11909;52.516;13.564;2022-12-08T03:36:53;12.05;;;7.40;;
23472;SDS011;11909;52.516;13.564;2022-12-08T03:39:21;10.47;;;7.20;;
23472;SDS011;11909;52.516;13.564;2022-12-08T03:41:49;12.07;;;7.35;;
23472;SDS011;11909;52.516;13.564;2022-12-08T03:44:17;11.48;;;6.97;;
23472;SDS011;11909;52.516;13.564;2022-12-08T03:46:44;11.73;;;7.18;;
23472;SDS011;11909;52.516;13.564;2022-12-08T03:49:12;11.57;;;7.05;;
23472;SDS011;11909;52.516;13.564;2022-12-08T03:51:40;10.23;;;7.18;;
23472;SDS011;11909;52.516;13.564;2022-12-08T03:54:09;10.43;;;6.80;;
23472;SDS011;11909;52.516;13.564;2022-12-08T03:56:37;11.07;;;7.25;;
23472;SDS011;11909;52.516;13.564;2022-12-08T03:59:06;9.13;;;6.32;;
23472;SDS011;11909;52.516;13.564;2022-12-08T04:01:34;9.63;;;6.72;;
23472;SDS011;11909;52.516;13.564;2022-12-08T04:04:01;11.55;;;7.45;;
23472;SDS011;11909;52.516;13.564;2022-12-08T04:06:29;10.20;;;6.95;;
23472;SDS011;11909;52.516;13.564;2022-12-08T04:08:57;11.55;;;7.50;;
23472;SDS011;11909;52.516;13.564;2022-12-08T04:11:26;9.57;;;6.95;;
23472;SDS011;11909;52.516;13.564;2022-12-08T04:13:54;11.70;;;7.43;;
23472;SDS011;11909;52.516;13.564;2022-12-08T04:16:22;11.57;;;7.68;;
23472;SDS011;11909;52.516;13.564;2022-12-08T04:18:52;12.30;;;8.60;;
23472;SDS011;11909;52.516;13.564;2022-12-08T04:21:20;13.93;;;9.23;;
23472;SDS011;11909;52.516;13.564;2022-12-08T04:23:48;15.45;;;9.13;;
23472;SDS011;11909;52.516;13.564;2022-12-08T04:26:21;15.02;;;10.48;;
23472;SDS011;11909;52.516;13.564;2022-12-08T04:28:50;15.18;;;9.95;;
23472;SDS011;11909;52.516;13.564;2022-12-08T04:31:18;17.30;;;10.65;;
23472;SDS011;11909;52.516;13.564;2022-12-08T04:33:45;17.48;;;10.30;;
23472;SDS011;11909;52.516;13.564;2022-12-08T04:36:13;14.88;;;9.75;;
23472;SDS011;11909;52.516;13.564;2022-12-08T04:38:41;14.93;;;9.38;;
23472;SDS011;11909;52.516;13.564;2022-12-08T04:41:09;15.10;;;10.15;;
23472;SDS011;11909;52.516;13.564;2022-12-08T04:43:36;18.55;;;10.43;;
23472;SDS011;11909;52.516;13.564;2022-12-08T04:46:06;15.88;;;10.27;;
23472;SDS011;11909;52.516;13.564;2022-12-08T04:48:35;18.20;;;10.75;;
23472;SDS011;11909;52.516;13.564;2022-12-08T04:51:04;15.65;;;10.38;;
23472;SDS011;11909;52.516;13.564;2022-12-08T04:53:32;14.98;;;10.52;;
23472;SDS011;11909;52.516;13.564;2022-12-08T04:56:00;16.38;;;10.45;;
23472;SDS011;11909;52.516;13.564;2022-12-08T04:58:27;18.23;;;11.27;;
23472;SDS011;11909;52.516;13.564;2022-12-08T05:00:55;16.67;;;10.82;;
23472;SDS011;11909;52.516;13.564;2022-12-08T05:03:24;15.70;;;11.40;;
23472;SDS011;11909;52.516;13.564;2022-12-08T05:05:54;15.10;;;11.15;;
23472;SDS011;11909;52.516;13.564;2022-12-08T05:08:21;16.17;;;11.23;;
23472;SDS011;11909;52.516;13.564;2022-12-08T05:10:49;17.88;;;11.02;;
23472;SDS011;11909;52.516;13.564;2022-12-08T05:13:17;19.15;;;11.10;;
23472;SDS011;11909;52.516;13.564;2022-12-08T05:15:45;20.38;;;12.60;;
23472;SDS011;11909;52.516;13.564;2022-12-08T05:18:12;18.60;;;12.15;;
23472;SDS011;11909;52.516;13.564;2022-12-08T05:20:42;16.80;;;11.20;;
23472;SDS011;11909;52.516;13.564;2022-12-08T05:23:09;18.48;;;11.65;;
23472;SDS011;11909;52.516;13.564;2022-12-08T05:25:37;18.30;;;12.02;;
23472;SDS011;11909;52.516;13.564;2022-12-08T05:28:05;19.73;;;12.57;;
23472;SDS011;11909;52.516;13.564;2022-12-08T05:30:52;21.70;;;12.82;;
23472;SDS011;11909;52.516;13.564;2022-12-08T05:33:20;19.45;;;12.52;;
23472;SDS011;11909;52.516;13.564;2022-12-08T05:35:49;23.25;;;13.27;;
23472;SDS011;11909;52.516;13.564;2022-12-08T05:38:17;19.80;;;13.27;;
23472;SDS011;11909;52.516;13.564;2022-12-08T05:40:45;22.60;;;14.23;;
23472;SDS011;11909;52.516;13.564;2022-12-08T05:43:13;20.75;;;13.57;;
23472;SDS011;11909;52.516;13.564;2022-12-08T05:45:41;23.25;;;14.10;;
23472;SDS011;11909;52.516;13.564;2022-12-08T05:48:08;22.10;;;14.05;;
23472;SDS011;11909;52.516;13.564;2022-12-08T05:50:36;24.77;;;14.68;;
23472;SDS011;11909;52.516;13.564;2022-12-08T05:53:05;25.33;;;14.57;;
23472;SDS011;11909;52.516;13.564;2022-12-08T05:55:33;25.27;;;15.55;;
23472;SDS011;11909;52.516;13.564;2022-12-08T05:58:00;24.00;;;14.98;;
23472;SDS011;11909;52.516;13.564;2022-12-08T06:00:33;22.92;;;14.63;;
23472;SDS011;11909;52.516;13.564;2022-12-08T06:03:00;22.10;;;14.65;;
23472;SDS011;11909;52.516;13.564;2022-12-08T06:05:28;21.58;;;13.85;;
23472;SDS011;11909;52.516;13.564;2022-12-08T06:07:58;23.33;;;15.45;;
23472;SDS011;11909;52.516;13.564;2022-12-08T06:10:27;23.35;;;15.05;;
23472;SDS011;11909;52.516;13.564;2022-12-08T06:12:55;24.70;;;14.20;;
23472;SDS011;11909;52.516;13.564;2022-12-08T06:15:23;23.95;;;15.05;;
23472;SDS011;11909;52.516;13.564;2022-12-08T06:17:50;27.75;;;15.38;;
23472;SDS011;11909;52.516;13.564;2022-12-08T06:20:18;30.52;;;16.05;;
23472;SDS011;11909;52.516;13.564;2022-12-08T06:22:46;28.48;;;16.35;;
23472;SDS011;11909;52.516;13.564;2022-12-08T06:25:13;24.75;;;15.32;;
23472;SDS011;11909;52.516;13.564;2022-12-08T06:27:43;25.25;;;15.65;;
23472;SDS011;11909;52.516;13.564;2022-12-08T06:30:10;29.55;;;17.17;;
23472;SDS011;11909;52.516;13.564;2022-12-08T06:32:38;25.95;;;15.43;;
23472;SDS011;11909;52.516;13.564;2022-12-08T06:35:06;25.77;;;15.85;;
23472;SDS011;11909;52.516;13.564;2022-12-08T06:37:35;23.67;;;15.70;;
23472;SDS011;11909;52.516;13.564;2022-12-08T06:40:03;30.83;;;15.65;;
23472;SDS011;11909;52.516;13.564;2022-12-08T06:42:32;25.02;;;15.50;;
23472;SDS011;11909;52.516;13.564;2022-12-08T06:45:14;27.63;;;16.15;;
23472;SDS011;11909;52.516;13.564;2022-12-08T06:47:43;27.83;;;15.50;;
23472;SDS011;11909;52.516;13.564;2022-12-08T06:50:11;29.17;;;16.40;;
23472;SDS011;11909;52.516;13.564;2022-12-08T06:52:39;26.98;;;15.23;;
23472;SDS011;11909;52.516;13.564;2022-12-08T06:55:23;27.95;;;16.33;;
23472;SDS011;11909;52.516;13.564;2022-12-08T06:58:11;25.45;;;16.27;;
23472;SDS011;11909;52.516;13.564;2022-12-08T07:00:41;26.77;;;16.17;;
23472;SDS011;11909;52.516;13.564;2022-12-08T07:03:09;29.17;;;15.68;;
23472;SDS011;11909;52.516;13.564;2022-12-08T07:05:37;27.83;;;16.35;;
23472;SDS011;11909;52.516;13.564;2022-12-08T07:08:06;27.83;;;15.88;;
23472;SDS011;11909;52.516;13.564;2022-12-08T07:10:35;29.60;;;16.02;;
23472;SDS011;11909;52.516;13.564;2022-12-08T07:13:03;28.23;;;15.40;;
23472;SDS011;11909;52.516;13.564;2022-12-08T07:15:31;27.67;;;16.02;;
23472;SDS011;11909;52.516;13.564;2022-12-08T07:18:00;26.75;;;15.23;;
23472;SDS011;11909;52.516;13.564;2022-12-08T07:20:27;26.63;;;15.90;;
23472;SDS011;11909;52.516;13.564;2022-12-08T07:22:55;29.10;;;16.20;;
23472;SDS011;11909;52.516;13.564;2022-12-08T07:25:23;28.55;;;15.93;;
23472;SDS011;11909;52.516;13.564;2022-12-08T07:27:50;23.42;;;14.43;;
23472;SDS011;11909;52.516;13.564;2022-12-08T07:30:18;29.75;;;15.70;;
23472;SDS011;11909;52.516;13.564;2022-12-08T07:32:46;26.73;;;14.55;;
23472;SDS011;11909;52.516;13.564;2022-12-08T07:35:15;26.42;;;15.50;;
23472;SDS011;11909;52.516;13.564;2022-12-08T07:37:43;24.90;;;15.40;;
23472;SDS011;11909;52.516;13.564;2022-12-08T07:40:11;27.42;;;15.52;;
23472;SDS011;11909;52.516;13.564;2022-12-08T07:42:39;25.17;;;15.18;;
23472;SDS011;11909;52.516;13.564;2022-12-08T07:45:08;26.67;;;15.00;;
23472;SDS011;11909;52.516;13.564;2022-12-08T07:47:36;25.88;;;15.45;;
23472;SDS011;11909;52.516;13.564;2022-12-08T07:50:04;29.80;;;14.40;;
23472;SDS011;11909;52.516;13.564;2022-12-08T07:52:34;27.83;;;14.85;;
23472;SDS011;11909;52.516;13.564;2022-12-08T07:55:02;25.25;;;15.13;;
23472;SDS011;11909;52.516;13.564;2022-12-08T07:57:30;29.27;;;15.10;;
23472;SDS011;11909;52.516;13.564;2022-12-08T07:59:57;26.00;;;13.95;;
23472;SDS011;11909;52.516;13.564;2022-12-08T08:02:25;26.70;;;14.50;;
23472;SDS011;11909;52.516;13.564;2022-12-08T08:04:53;22.60;;;13.45;;
23472;SDS011;11909;52.516;13.564;2022-12-08T08:07:21;28.63;;;14.30;;
23472;SDS011;11909;52.516;13.564;2022-12-08T08:09:50;24.35;;;13.48;;
23472;SDS011;11909;52.516;13.564;2022-12-08T08:12:17;27.35;;;13.23;;
23472;SDS011;11909;52.516;13.564;2022-12-08T08:14:57;27.17;;;14.52;;
23472;SDS011;11909;52.516;13.564;2022-12-08T08:17:25;27.20;;;14.15;;
23472;SDS011;11909;52.516;13.564;2022-12-08T08:19:53;25.90;;;14.30;;
23472;SDS011;11909;52.516;13.564;2022-12-08T08:22:20;31.75;;;14.73;;
23472;SDS011;11909;52.516;13.564;2022-12-08T08:24:49;23.85;;;13.75;;
23472;SDS011;11909;52.516;13.564;2022-12-08T08:27:17;26.80;;;13.93;;
23472;SDS011;11909;52.516;13.564;2022-12-08T08:29:45;23.90;;;13.80;;
23472;SDS011;11909;52.516;13.564;2022-12-08T08:32:13;23.35;;;13.48;;
23472;SDS011;11909;52.516;13.564;2022-12-08T08:34:40;25.20;;;13.85;;
23472;SDS011;11909;52.516;13.564;2022-12-08T08:37:08;25.67;;;14.15;;
23472;SDS011;11909;52.516;13.564;2022-12-08T08:39:36;22.10;;;13.63;;
23472;SDS011;11909;52.516;13.564;2022-12-08T08:42:05;28.23;;;15.48;;
23472;SDS011;11909;52.516;13.564;2022-12-08T08:44:32;26.63;;;14.43;;
23472;SDS011;11909;52.516;13.564;2022-12-08T08:47:00;24.45;;;14.23;;
23472;SDS011;11909;52.516;13.564;2022-12-08T08:49:28;22.63;;;14.07;;
23472;SDS011;11909;52.516;13.564;2022-12-08T08:51:55;22.38;;;14.38;;
23472;SDS011;11909;52.516;13.564;2022-12-08T08:54:23;33.15;;;15.10;;
23472;SDS011;11909;52.516;13.564;2022-12-08T08:56:51;25.55;;;15.77;;
23472;SDS011;11909;52.516;13.564;2022-12-08T08:59:20;25.25;;;14.73;;
23472;SDS011;11909;52.516;13.564;2022-12-08T09:01:48;24.95;;;14.55;;
23472;SDS011;11909;52.516;13.564;2022-12-08T09:04:15;28.60;;;14.32;;
23472;SDS011;11909;52.516;13.564;2022-12-08T09:06:43;24.10;;;15.57;;
23472;SDS011;11909;52.516;13.564;2022-12-08T09:09:11;22.90;;;13.93;;
23472;SDS011;11909;52.516;13.564;2022-12-08T09:11:39;31.00;;;14.40;;
23472;SDS011;11909;52.516;13.564;2022-12-08T09:14:06;24.25;;;15.07;;
23472;SDS011;11909;52.516;13.564;2022-12-08T09:16:38;24.13;;;14.50;;
23472;SDS011;11909;52.516;13.564;2022-12-08T09:19:08;23.42;;;14.48;;
23472;SDS011;11909;52.516;13.564;2022-12-08T09:21:35;26.88;;;14.80;;
23472;SDS011;11909;52.516;13.564;2022-12-08T09:24:03;23.17;;;14.05;;
23472;SDS011;11909;52.516;13.564;2022-12-08T09:26:31;27.55;;;14.57;;
23472;SDS011;11909;52.516;13.564;2022-12-08T09:28:59;22.63;;;13.73;;
23472;SDS011;11909;52.516;13.564;2022-12-08T09:31:26;27.98;;;16.05;;
23472;SDS011;11909;52.516;13.564;2022-12-08T09:33:56;31.85;;;15.50;;
23472;SDS011;11909;52.516;13.564;2022-12-08T09:36:24;25.63;;;14.73;;
23472;SDS011;11909;52.516;13.564;2022-12-08T09:38:52;24.65;;;15.38;;
23472;SDS011;11909;52.516;13.564;2022-12-08T09:41:22;26.50;;;14.75;;
23472;SDS011;11909;52.516;13.564;2022-12-08T09:44:14;29.45;;;14.02;;
23472;SDS011;11909;52.516;13.564;2022-12-08T09:47:12;24.15;;;14.73;;
23472;SDS011;11909;52.516;13.564;2022-12-08T09:49:47;28.25;;;14.88;;
23472;SDS011;11909;52.516;13.564;2022-12-08T09:52:20;26.45;;;14.43;;
23472;SDS011;11909;52.516;13.564;2022-12-08T09:54:51;30.65;;;17.65;;
23472;SDS011;11909;52.516;13.564;2022-12-08T09:57:19;27.75;;;14.85;;
23472;SDS011;11909;52.516;13.564;2022-12-08T09:59:51;39.53;;;22.13;;
23472;SDS011;11909;52.516;13.564;2022-12-08T10:02:21;24.35;;;13.90;;
23472;SDS011;11909;52.516;13.564;2022-12-08T10:04:51;23.42;;;13.77;;
23472;SDS011;11909;52.516;13.564;2022-12-08T10:07:23;28.50;;;15.02;;
23472;SDS011;11909;52.516;13.564;2022-12-08T10:09:58;29.50;;;15.15;;
23472;SDS011;11909;52.516;13.564;2022-12-08T10:12:31;38.58;;;23.23;;
23472;SDS011;11909;52.516;13.564;2022-12-08T10:15:07;23.73;;;15.50;;
23472;SDS011;11909;52.516;13.564;2022-12-08T10:17:55;23.45;;;14.95;;
23472;SDS011;11909;52.516;13.564;2022-12-08T10:20:32;22.60;;;14.43;;
23472;SDS011;11909;52.516;13.564;2022-12-08T10:23:05;23.42;;;14.23;;
23472;SDS011;11909;52.516;13.564;2022-12-08T10:25:36;23.95;;;15.52;;
23472;SDS011;11909;52.516;13.564;2022-12-08T10:28:07;23.30;;;14.18;;
23472;SDS011;11909;52.516;13.564;2022-12-08T10:30:35;24.70;;;15.00;;
23472;SDS011;11909;52.516;13.564;2022-12-08T10:33:04;25.25;;;14.55;;
23472;SDS011;11909;52.516;13.564;2022-12-08T10:35:42;24.98;;;14.15;;
23472;SDS011;11909;52.516;13.564;2022-12-08T10:38:16;21.08;;;13.77;;
23472;SDS011;11909;52.516;13.564;2022-12-08T10:40:46;26.40;;;14.90;;
23472;SDS011;11909;52.516;13.564;2022-12-08T10:43:16;33.10;;;15.02;;
23472;SDS011;11909;52.516;13.564;2022-12-08T10:45:46;23.60;;;14.25;;
23472;SDS011;11909;52.516;13.564;2022-12-08T10:48:15;27.35;;;14.13;;
23472;SDS011;11909;52.516;13.564;2022-12-08T10:50:51;24.50;;;13.63;;
23472;SDS011;11909;52.516;13.564;2022-12-08T10:53:21;26.13;;;14.38;;
23472;SDS011;11909;52.516;13.564;2022-12-08T10:55:51;25.17;;;14.02;;
23472;SDS011;11909;52.516;13.564;2022-12-08T10:58:32;23.45;;;14.63;;
23472;SDS011;11909;52.516;13.564;2022-12-08T11:01:02;23.98;;;13.90;;
23472;SDS011;11909;52.516;13.564;2022-12-08T11:03:33;25.15;;;13.55;;
23472;SDS011;11909;52.516;13.564;2022-12-08T11:06:10;21.73;;;13.98;;
23472;SDS011;11909;52.516;13.564;2022-12-08T11:08:43;26.13;;;13.75;;
23472;SDS011;11909;52.516;13.564;2022-12-08T11:11:14;25.65;;;14.40;;
23472;SDS011;11909;52.516;13.564;2022-12-08T11:13:43;24.20;;;12.98;;
23472;SDS011;11909;52.516;13.564;2022-12-08T11:16:11;24.98;;;14.07;;
23472;SDS011;11909;52.516;13.564;2022-12-08T11:18:41;23.00;;;13.45;;
23472;SDS011;11909;52.516;13.564;2022-12-08T11:21:14;21.10;;;12.52;;
23472;SDS011;11909;52.516;13.564;2022-12-08T11:23:45;17.98;;;12.23;;
23472;SDS011;11909;52.516;13.564;2022-12-08T11:26:16;22.10;;;12.60;;
23472;SDS011;11909;52.516;13.564;2022-12-08T11:28:55;21.27;;;12.77;;
23472;SDS011;11909;52.516;13.564;2022-12-08T11:31:25;18.92;;;12.77;;
23472;SDS011;11909;52.516;13.564;2022-12-08T11:33:56;22.00;;;11.95;;
23472;SDS011;11909;52.516;13.564;2022-12-08T11:36:26;22.00;;;12.45;;
23472;SDS011;11909;52.516;13.564;2022-12-08T11:38:57;24.70;;;13.00;;
23472;SDS011;11909;52.516;13.564;2022-12-08T11:43:58;17.90;;;11.85;;
23472;SDS011;11909;52.516;13.564;2022-12-08T11:46:33;25.00;;;13.13;;
23472;SDS011;11909;52.516;13.564;2022-12-08T11:49:07;21.80;;;13.15;;
23472;SDS011;11909;52.516;13.564;2022-12-08T11:51:41;25.63;;;12.88;;
23472;SDS011;11909;52.516;13.564;2022-12-08T11:54:16;26.85;;;11.43;;
23472;SDS011;11909;52.516;13.564;2022-12-08T11:56:49;23.55;;;14.20;;
23472;SDS011;11909;52.516;13.564;2022-12-08T11:59:21;26.60;;;12.95;;
23472;SDS011;11909;52.516;13.564;2022-12-08T12:01:55;25.23;;;14.35;;
23472;SDS011;11909;52.516;13.564;2022-12-08T12:04:25;24.85;;;13.35;;
23472;SDS011;11909;52.516;13.564;2022-12-08T12:07:13;20.67;;;12.75;;
23472;SDS011;11909;52.516;13.564;2022-12-08T12:12:42;21.48;;;13.00;;
23472;SDS011;11909;52.516;13.564;2022-12-08T12:15:31;21.85;;;12.57;;
23472;SDS011;11909;52.516;13.564;2022-12-08T12:18:18;20.92;;;12.25;;
23472;SDS011;11909;52.516;13.564;2022-12-08T12:20:54;18.85;;;12.10;;
23472;SDS011;11909;52.516;13.564;2022-12-08T12:23:28;16.27;;;11.23;;
23472;SDS011;11909;52.516;13.564;2022-12-08T12:26:04;19.85;;;12.70;;
23472;SDS011;11909;52.516;13.564;2022-12-08T12:28:36;25.05;;;11.98;;
23472;SDS011;11909;52.516;13.564;2022-12-08T12:31:08;22.17;;;12.27;;
23472;SDS011;11909;52.516;13.564;2022-12-08T12:36:06;21.27;;;11.70;;
23472;SDS011;11909;52.516;13.564;2022-12-08T12:38:38;15.90;;;11.02;;
23472;SDS011;11909;52.516;13.564;2022-12-08T12:41:31;16.52;;;11.13;;
23472;SDS011;11909;52.516;13.564;2022-12-08T12:44:23;20.88;;;12.18;;
23472;SDS011;11909;52.516;13.564;2022-12-08T12:47:03;17.15;;;10.25;;
23472;SDS011;11909;52.516;13.564;2022-12-08T12:49:52;19.05;;;11.48;;
23472;SDS011;11909;52.516;13.564;2022-12-08T12:52:45;18.48;;;10.75;;
23472;SDS011;11909;52.516;13.564;2022-12-08T13:04:04;16.23;;;10.43;;
23472;SDS011;11909;52.516;13.564;2022-12-08T13:09:04;20.58;;;11.68;;
23472;SDS011;11909;52.516;13.564;2022-12-08T13:11:44;15.90;;;10.82;;
23472;SDS011;11909;52.516;13.564;2022-12-08T13:14:23;21.85;;;11.25;;
23472;SDS011;11909;52.516;13.564;2022-12-08T13:16:55;17.77;;;11.52;;
23472;SDS011;11909;52.516;13.564;2022-12-08T13:19:25;19.50;;;11.93;;
23472;SDS011;11909;52.516;13.564;2022-12-08T13:21:57;18.38;;;11.88;;
23472;SDS011;11909;52.516;13.564;2022-12-08T13:24:30;18.08;;;11.98;;
23472;SDS011;11909;52.516;13.564;2022-12-08T13:33:06;18.73;;;11.23;;
23472;SDS011;11909;52.516;13.564;2022-12-08T13:35:46;19.50;;;11.60;;
23472;SDS011;11909;52.516;13.564;2022-12-08T13:38:20;17.58;;;11.25;;
23472;SDS011;11909;52.516;13.564;2022-12-08T13:40:53;15.60;;;9.98;;
23472;SDS011;11909;52.516;13.564;2022-12-08T13:43:25;16.15;;;11.13;;
23472;SDS011;11909;52.516;13.564;2022-12-08T13:46:13;13.63;;;9.95;;
23472;SDS011;11909;52.516;13.564;2022-12-08T13:49:05;17.08;;;11.15;;
23472;SDS011;11909;52.516;13.564;2022-12-08T13:51:55;17.33;;;11.13;;
23472;SDS011;11909;52.516;13.564;2022-12-08T13:54:43;22.05;;;11.38;;
23472;SDS011;11909;52.516;13.564;2022-12-08T13:57:33;19.65;;;12.52;;
23472;SDS011;11909;52.516;13.564;2022-12-08T14:00:07;19.92;;;11.73;;
23472;SDS011;11909;52.516;13.564;2022-12-08T14:02:42;23.40;;;12.85;;
23472;SDS011;11909;52.516;13.564;2022-12-08T14:05:14;19.60;;;13.32;;
23472;SDS011;11909;52.516;13.564;2022-12-08T14:07:55;21.65;;;12.57;;
23472;SDS011;11909;52.516;13.564;2022-12-08T14:10:24;22.17;;;13.85;;
23472;SDS011;11909;52.516;13.564;2022-12-08T14:15:24;22.67;;;13.77;;
23472;SDS011;11909;52.516;13.564;2022-12-08T14:17:59;24.00;;;13.90;;
23472;SDS011;11909;52.516;13.564;2022-12-08T14:20:28;20.52;;;13.60;;
23472;SDS011;11909;52.516;13.564;2022-12-08T14:23:07;24.23;;;15.00;;
23472;SDS011;11909;52.516;13.564;2022-12-08T14:25:36;20.27;;;13.48;;
23472;SDS011;11909;52.516;13.564;2022-12-08T14:28:04;20.65;;;12.50;;
23472;SDS011;11909;52.516;13.564;2022-12-08T14:30:34;19.63;;;13.70;;
23472;SDS011;11909;52.516;13.564;2022-12-08T14:35:31;14.70;;;9.73;;
23472;SDS011;11909;52.516;13.564;2022-12-08T14:38:03;14.52;;;9.82;;
23472;SDS011;11909;52.516;13.564;2022-12-08T14:43:09;16.55;;;10.32;;
23472;SDS011;11909;52.516;13.564;2022-12-08T14:45:47;9.73;;;7.20;;
23472;SDS011;11909;52.516;13.564;2022-12-08T14:48:19;11.43;;;7.43;;
23472;SDS011;11909;52.516;13.564;2022-12-08T14:50:59;10.15;;;7.53;;
23472;SDS011;11909;52.516;13.564;2022-12-08T14:53:36;11.60;;;7.72;;
23472;SDS011;11909;52.516;13.564;2022-12-08T14:56:08;10.95;;;7.82;;
23472;SDS011;11909;52.516;13.564;2022-12-08T14:58:45;14.07;;;7.53;;
23472;SDS011;11909;52.516;13.564;2022-12-08T15:01:21;11.63;;;7.75;;
23472;SDS011;11909;52.516;13.564;2022-12-08T15:03:50;11.95;;;8.65;;
23472;SDS011;11909;52.516;13.564;2022-12-08T15:06:20;14.98;;;8.35;;
23472;SDS011;11909;52.516;13.564;2022-12-08T15:08:49;12.77;;;8.75;;
23472;SDS011;11909;52.516;13.564;2022-12-08T15:11:30;10.80;;;8.02;;
23472;SDS011;11909;52.516;13.564;2022-12-08T15:14:00;10.50;;;7.22;;